Time;durP1;ratioP1;P1;durP2;ratioP2;P2;SDS_P1;SDS_P2;PMS_P1;PMS_P2;Temp;Humidity;BMP_temperature;BMP_pressure;BME280_temperature;BME280_humidity;BME280_pressure;Samples;Min_cycle;Max_cycle;Signal;HPM_P1;HPM_P2
2022/10/19 00:00:45;;;;;;;0.00;0.00;;;;;;;;;;1745464;28;20666;-70
2022/10/19 00:01:37;;;;;;;0.00;0.00;;;;;;;;;;1747271;28;20607;-70
2022/10/19 00:02:29;;;;;;;0.00;0.00;;;;;;;;;;1741730;28;20268;-70
2022/10/19 00:03:20;;;;;;;0.00;0.00;;;;;;;;;;1740735;28;20258;-70
2022/10/19 00:04:12;;;;;;;0.00;0.00;;;;;;;;;;1746680;28;20232;-70
2022/10/19 00:05:03;;;;;;;0.00;0.00;;;;;;;;;;1747586;28;20233;-70
2022/10/19 00:05:56;;;;;;;0.00;0.00;;;;;;;;;;1739819;28;20656;-70
2022/10/19 00:06:47;;;;;;;0.00;0.00;;;;;;;;;;1739883;28;20580;-69
2022/10/19 00:07:39;;;;;;;0.00;0.00;;;;;;;;;;1739989;28;20195;-69
2022/10/19 00:08:30;;;;;;;0.00;0.00;;;;;;;;;;1740339;28;20238;-69
2022/10/19 00:09:22;;;;;;;0.00;0.00;;;;;;;;;;1746974;28;20213;-70
2022/10/19 00:10:13;;;;;;;0.00;0.00;;;;;;;;;;1747205;28;20731;-70
2022/10/19 00:11:05;;;;;;;0.00;0.00;;;;;;;;;;1746804;28;20293;-70
2022/10/19 00:11:57;;;;;;;0.00;0.00;;;;;;;;;;1746613;28;20221;-70
2022/10/19 00:12:49;;;;;;;0.00;0.00;;;;;;;;;;1746446;28;20202;-70
2022/10/19 00:13:40;;;;;;;0.00;0.00;;;;;;;;;;1746796;28;20248;-69
2022/10/19 00:14:32;;;;;;;0.00;0.00;;;;;;;;;;1746914;28;20210;-70
2022/10/19 00:15:23;;;;;;;0.00;0.00;;;;;;;;;;1747236;28;20289;-69
2022/10/19 00:16:16;;;;;;;0.00;0.00;;;;;;;;;;1747295;28;20237;-69
2022/10/19 00:17:08;;;;;;;0.00;0.00;;;;;;;;;;1746652;28;20202;-70
2022/10/19 00:18:00;;;;;;;0.00;0.00;;;;;;;;;;1746584;28;20203;-70
2022/10/19 00:18:52;;;;;;;0.00;0.00;;;;;;;;;;1747370;28;20237;-70
2022/10/19 00:19:44;;;;;;;0.00;0.00;;;;;;;;;;1749514;28;20694;-70
2022/10/19 00:20:35;;;;;;;0.00;0.00;;;;;;;;;;1747505;28;20286;-70
2022/10/19 00:21:27;;;;;;;0.00;0.00;;;;;;;;;;1749300;28;20594;-70
2022/10/19 00:22:18;;;;;;;0.00;0.00;;;;;;;;;;1744452;28;20245;-69
2022/10/19 00:23:10;;;;;;;0.00;0.00;;;;;;;;;;1742031;28;20739;-70
2022/10/19 00:24:01;;;;;;;0.00;0.00;;;;;;;;;;1742159;28;20289;-69
2022/10/19 00:24:53;;;;;;;0.00;0.00;;;;;;;;;;1742216;28;20226;-70
2022/10/19 00:25:54;;;;;;;0.00;0.00;;;;;;;;;;1742442;28;20244;-70
2022/10/19 00:26:46;;;;;;;0.00;0.00;;;;;;;;;;1742635;28;20179;-70
2022/10/19 00:27:37;;;;;;;0.00;0.00;;;;;;;;;;1742007;28;20234;-71
2022/10/19 00:28:30;;;;;;;0.00;0.00;;;;;;;;;;1742697;28;20203;-71
2022/10/19 00:29:21;;;;;;;0.00;0.00;;;;;;;;;;1748972;28;20237;-71
2022/10/19 00:30:13;;;;;;;0.00;0.00;;;;;;;;;;1749231;28;20218;-71
2022/10/19 00:31:05;;;;;;;0.00;0.00;;;;;;;;;;1749068;28;20712;-70
2022/10/19 00:31:57;;;;;;;0.00;0.00;;;;;;;;;;1749027;28;20225;-70
2022/10/19 00:32:49;;;;;;;0.00;0.00;;;;;;;;;;1746168;28;20264;-70
2022/10/19 00:33:41;;;;;;;0.00;0.00;;;;;;;;;;1743585;28;20732;-70
2022/10/19 00:34:33;;;;;;;0.00;0.00;;;;;;;;;;1749097;28;20643;-69
2022/10/19 00:35:25;;;;;;;0.00;0.00;;;;;;;;;;1749243;28;20198;-70
2022/10/19 00:36:17;;;;;;;0.00;0.00;;;;;;;;;;1749521;28;20315;-71
2022/10/19 00:37:09;;;;;;;0.00;0.00;;;;;;;;;;1749157;28;20631;-71
2022/10/19 00:38:00;;;;;;;0.00;0.00;;;;;;;;;;1749066;28;20601;-71
2022/10/19 00:38:52;;;;;;;0.00;0.00;;;;;;;;;;1749092;28;20205;-71
2022/10/19 00:39:43;;;;;;;0.00;0.00;;;;;;;;;;1748909;28;20659;-71
2022/10/19 00:40:37;;;;;;;0.00;0.00;;;;;;;;;;1749489;28;20198;-71
2022/10/19 00:41:29;;;;;;;0.00;0.00;;;;;;;;;;1735397;28;20358;-70
2022/10/19 00:42:21;;;;;;;0.00;0.00;;;;;;;;;;1741143;28;20207;-70
2022/10/19 00:43:14;;;;;;;0.00;0.00;;;;;;;;;;1742451;28;20245;-70
2022/10/19 00:44:07;;;;;;;0.00;0.00;;;;;;;;;;1746878;28;20285;-69
2022/10/19 00:45:12;;;;;;;0.00;0.00;;;;;;;;;;1748983;28;20248;-70
2022/10/19 00:46:04;;;;;;;0.00;0.00;;;;;;;;;;1747814;28;20240;-70
2022/10/19 00:46:57;;;;;;;0.00;0.00;;;;;;;;;;1749120;28;20893;-70
2022/10/19 00:47:51;;;;;;;0.00;0.00;;;;;;;;;;1749130;28;20473;-70
2022/10/19 00:48:42;;;;;;;0.00;0.00;;;;;;;;;;1747439;28;20252;-70
2022/10/19 00:49:36;;;;;;;0.00;0.00;;;;;;;;;;1749459;28;20206;-70
2022/10/19 00:50:27;;;;;;;0.00;0.00;;;;;;;;;;1748707;28;20320;-70
2022/10/19 00:51:19;;;;;;;0.00;0.00;;;;;;;;;;1749352;28;20212;-70
2022/10/19 00:52:12;;;;;;;0.00;0.00;;;;;;;;;;1748399;28;20659;-70
2022/10/19 00:53:04;;;;;;;0.00;0.00;;;;;;;;;;1749301;28;20530;-70
2022/10/19 00:53:56;;;;;;;0.00;0.00;;;;;;;;;;1748907;28;20244;-70
2022/10/19 00:54:49;;;;;;;0.00;0.00;;;;;;;;;;1749258;28;20198;-70
2022/10/19 00:55:40;;;;;;;0.00;0.00;;;;;;;;;;1748727;28;20536;-71
2022/10/19 00:56:34;;;;;;;0.00;0.00;;;;;;;;;;1749091;28;20210;-71
2022/10/19 00:57:27;;;;;;;0.00;0.00;;;;;;;;;;1748961;28;20206;-70
2022/10/19 00:58:19;;;;;;;0.00;0.00;;;;;;;;;;1749069;28;20198;-71
2022/10/19 00:59:12;;;;;;;0.00;0.00;;;;;;;;;;1748940;28;20292;-71
2022/10/19 01:00:06;;;;;;;0.00;0.00;;;;;;;;;;1749719;28;20282;-71
2022/10/19 01:00:58;;;;;;;0.00;0.00;;;;;;;;;;1741481;28;20245;-70
2022/10/19 01:01:51;;;;;;;0.00;0.00;;;;;;;;;;1742086;28;20195;-69
2022/10/19 01:02:42;;;;;;;0.00;0.00;;;;;;;;;;1741980;28;20345;-70
2022/10/19 01:03:35;;;;;;;0.00;0.00;;;;;;;;;;1743330;28;20640;-70
2022/10/19 01:04:27;;;;;;;0.00;0.00;;;;;;;;;;1748954;28;20237;-70
2022/10/19 01:05:19;;;;;;;0.00;0.00;;;;;;;;;;1749268;28;20216;-70
2022/10/19 01:06:11;;;;;;;0.00;0.00;;;;;;;;;;1749110;28;20245;-71
2022/10/19 01:07:04;;;;;;;0.00;0.00;;;;;;;;;;1748596;28;20233;-71
2022/10/19 01:07:56;;;;;;;0.00;0.00;;;;;;;;;;1749330;28;20255;-71
2022/10/19 01:08:48;;;;;;;0.00;0.00;;;;;;;;;;1748753;28;20276;-71
2022/10/19 01:09:39;;;;;;;0.00;0.00;;;;;;;;;;1744697;28;20234;-71
2022/10/19 01:10:33;;;;;;;0.00;0.00;;;;;;;;;;1742352;28;20233;-71
2022/10/19 01:11:31;;;;;;;0.00;0.00;;;;;;;;;;1742065;28;20315;-71
2022/10/19 01:12:31;;;;;;;0.00;0.00;;;;;;;;;;1741337;28;20191;-70
2022/10/19 01:13:28;;;;;;;0.00;0.00;;;;;;;;;;1742414;28;20215;-71
2022/10/19 01:14:27;;;;;;;0.00;0.00;;;;;;;;;;1742121;28;20199;-71
2022/10/19 01:15:22;;;;;;;0.00;0.00;;;;;;;;;;1744159;28;20250;-71
2022/10/19 01:16:16;;;;;;;0.00;0.00;;;;;;;;;;1749273;28;20548;-69
2022/10/19 01:17:10;;;;;;;0.00;0.00;;;;;;;;;;1745433;28;20261;-70
2022/10/19 01:18:05;;;;;;;0.00;0.00;;;;;;;;;;1742482;28;20587;-70
2022/10/19 01:19:04;;;;;;;0.00;0.00;;;;;;;;;;1741852;28;20207;-69
2022/10/19 01:20:08;;;;;;;0.00;0.00;;;;;;;;;;1742253;28;20628;-69
2022/10/19 01:21:08;;;;;;;0.00;0.00;;;;;;;;;;1741852;28;20235;-71
2022/10/19 01:22:07;;;;;;;0.00;0.00;;;;;;;;;;1741782;28;20407;-71
2022/10/19 01:23:03;;;;;;;0.00;0.00;;;;;;;;;;1741753;28;20309;-71
2022/10/19 01:24:22;;;;;;;0.00;0.00;;;;;;;;;;1742173;28;20198;-71
2022/10/19 01:25:20;;;;;;;0.00;0.00;;;;;;;;;;1742280;28;20206;-71
2022/10/19 01:26:18;;;;;;;0.00;0.00;;;;;;;;;;1742465;28;20195;-69
2022/10/19 01:27:24;;;;;;;0.00;0.00;;;;;;;;;;1741890;28;20286;-70
2022/10/19 01:28:19;;;;;;;0.00;0.00;;;;;;;;;;1741909;28;20190;-70
2022/10/19 01:29:14;;;;;;;0.00;0.00;;;;;;;;;;1741696;28;20330;-70
2022/10/19 01:30:09;;;;;;;0.00;0.00;;;;;;;;;;1742314;28;20269;-70
2022/10/19 01:31:03;;;;;;;0.00;0.00;;;;;;;;;;1739002;28;20306;-70
2022/10/19 01:32:00;;;;;;;0.00;0.00;;;;;;;;;;1742006;28;20195;-70
2022/10/19 01:32:58;;;;;;;0.00;0.00;;;;;;;;;;1748177;28;20616;-70
2022/10/19 01:33:53;;;;;;;0.00;0.00;;;;;;;;;;1747277;28;20640;-70
2022/10/19 01:34:48;;;;;;;0.00;0.00;;;;;;;;;;1748104;28;20934;-70
2022/10/19 01:35:42;;;;;;;0.00;0.00;;;;;;;;;;1746618;28;20297;-69
2022/10/19 01:36:39;;;;;;;0.00;0.00;;;;;;;;;;1748141;28;20237;-70
2022/10/19 01:37:34;;;;;;;0.00;0.00;;;;;;;;;;1743415;28;20683;-69
2022/10/19 01:38:29;;;;;;;0.00;0.00;;;;;;;;;;1741267;28;20230;-69
2022/10/19 01:39:25;;;;;;;0.00;0.00;;;;;;;;;;1740656;28;20207;-70
2022/10/19 01:40:20;;;;;;;0.00;0.00;;;;;;;;;;1742290;28;20206;-69
2022/10/19 01:41:16;;;;;;;0.00;0.00;;;;;;;;;;1738870;28;20200;-70
2022/10/19 01:42:11;;;;;;;0.00;0.00;;;;;;;;;;1736725;28;20213;-69
2022/10/19 01:43:04;;;;;;;0.00;0.00;;;;;;;;;;1741240;28;20597;-69
2022/10/19 01:43:58;;;;;;;0.00;0.00;;;;;;;;;;1744241;28;20240;-69
2022/10/19 01:44:51;;;;;;;0.00;0.00;;;;;;;;;;1747881;28;20217;-70
2022/10/19 01:45:46;;;;;;;0.00;0.00;;;;;;;;;;1744633;28;20361;-70
2022/10/19 01:46:39;;;;;;;0.00;0.00;;;;;;;;;;1741255;28;20660;-69
2022/10/19 01:47:33;;;;;;;0.00;0.00;;;;;;;;;;1740870;28;20230;-70
2022/10/19 01:48:27;;;;;;;0.00;0.00;;;;;;;;;;1740924;28;20213;-70
2022/10/19 01:49:19;;;;;;;0.00;0.00;;;;;;;;;;1740897;28;20671;-69
2022/10/19 01:50:13;;;;;;;0.00;0.00;;;;;;;;;;1740891;28;20207;-69
2022/10/19 01:51:06;;;;;;;0.00;0.00;;;;;;;;;;1740864;28;20215;-71
2022/10/19 01:51:59;;;;;;;0.00;0.00;;;;;;;;;;1741772;28;20234;-71
2022/10/19 01:52:52;;;;;;;0.00;0.00;;;;;;;;;;1744524;28;20199;-71
2022/10/19 01:53:45;;;;;;;0.00;0.00;;;;;;;;;;1740778;28;20231;-71
2022/10/19 01:54:39;;;;;;;0.00;0.00;;;;;;;;;;1740553;28;20203;-70
2022/10/19 01:55:30;;;;;;;0.00;0.00;;;;;;;;;;1743621;28;20222;-71
2022/10/19 01:56:24;;;;;;;0.00;0.00;;;;;;;;;;1747531;28;20230;-70
2022/10/19 01:57:19;;;;;;;0.00;0.00;;;;;;;;;;1743580;28;20214;-70
2022/10/19 01:58:14;;;;;;;0.00;0.00;;;;;;;;;;1740867;28;20298;-69
2022/10/19 01:59:07;;;;;;;0.00;0.00;;;;;;;;;;1740623;28;20254;-69
2022/10/19 02:00:06;;;;;;;0.00;0.00;;;;;;;;;;1741233;28;20621;-70
2022/10/19 02:01:01;;;;;;;0.00;0.00;;;;;;;;;;1745109;28;20199;-70
2022/10/19 02:01:54;;;;;;;0.00;0.00;;;;;;;;;;1747704;28;20270;-69
2022/10/19 02:02:47;;;;;;;0.00;0.00;;;;;;;;;;1747679;28;20198;-69
2022/10/19 02:03:40;;;;;;;0.00;0.00;;;;;;;;;;1747711;28;20202;-70
2022/10/19 02:04:33;;;;;;;0.00;0.00;;;;;;;;;;1747739;28;20241;-70
2022/10/19 02:05:27;;;;;;;0.00;0.00;;;;;;;;;;1746028;28;20636;-70
2022/10/19 02:06:18;;;;;;;0.00;0.00;;;;;;;;;;1740661;28;20302;-69
2022/10/19 02:07:11;;;;;;;0.00;0.00;;;;;;;;;;1743859;28;20509;-70
2022/10/19 02:08:05;;;;;;;0.00;0.00;;;;;;;;;;1747841;28;20681;-69
2022/10/19 02:08:57;;;;;;;0.00;0.00;;;;;;;;;;1743143;28;20226;-70
2022/10/19 02:09:48;;;;;;;0.00;0.00;;;;;;;;;;1740912;28;20671;-70
2022/10/19 02:10:40;;;;;;;0.00;0.00;;;;;;;;;;1740826;28;20206;-70
2022/10/19 02:11:32;;;;;;;0.00;0.00;;;;;;;;;;1744948;28;20551;-71
2022/10/19 02:12:25;;;;;;;0.00;0.00;;;;;;;;;;1745377;28;20241;-71
2022/10/19 02:13:17;;;;;;;0.00;0.00;;;;;;;;;;1748004;28;20344;-71
2022/10/19 02:14:11;;;;;;;0.00;0.00;;;;;;;;;;1747502;28;20230;-71
2022/10/19 02:15:10;;;;;;;0.00;0.00;;;;;;;;;;1747818;28;20233;-71
2022/10/19 02:16:05;;;;;;;0.00;0.00;;;;;;;;;;1747779;28;20249;-70
2022/10/19 02:16:59;;;;;;;0.00;0.00;;;;;;;;;;1747126;28;20207;-70
2022/10/19 02:17:52;;;;;;;0.00;0.00;;;;;;;;;;1747857;28;20241;-70
2022/10/19 02:18:46;;;;;;;0.00;0.00;;;;;;;;;;1747419;28;20284;-70
2022/10/19 02:19:37;;;;;;;0.00;0.00;;;;;;;;;;1747799;28;20356;-70
2022/10/19 02:20:29;;;;;;;0.00;0.00;;;;;;;;;;1747745;28;20206;-70
2022/10/19 02:21:20;;;;;;;0.00;0.00;;;;;;;;;;1747768;28;20671;-71
2022/10/19 02:22:13;;;;;;;0.00;0.00;;;;;;;;;;1746889;28;20698;-71
2022/10/19 02:23:04;;;;;;;0.10;0.10;;;;;;;;;;1747570;28;20696;-71
2022/10/19 02:23:56;;;;;;;0.00;0.00;;;;;;;;;;1747306;28;20209;-71
2022/10/19 02:24:47;;;;;;;0.00;0.00;;;;;;;;;;1747814;28;20242;-71
2022/10/19 02:25:39;;;;;;;0.00;0.00;;;;;;;;;;1743936;28;20286;-70
2022/10/19 02:26:30;;;;;;;0.00;0.00;;;;;;;;;;1741040;28;20301;-71
2022/10/19 02:27:23;;;;;;;0.00;0.00;;;;;;;;;;1740300;28;20215;-71
2022/10/19 02:28:14;;;;;;;0.00;0.00;;;;;;;;;;1741216;28;20325;-71
2022/10/19 02:29:06;;;;;;;0.00;0.00;;;;;;;;;;1744151;28;20418;-71
2022/10/19 02:29:57;;;;;;;0.00;0.00;;;;;;;;;;1747998;28;20238;-71
2022/10/19 02:30:50;;;;;;;0.00;0.00;;;;;;;;;;1741954;28;20541;-71
2022/10/19 02:31:42;;;;;;;0.00;0.00;;;;;;;;;;1741035;28;20819;-70
2022/10/19 02:32:34;;;;;;;0.00;0.00;;;;;;;;;;1740260;28;20207;-70
2022/10/19 02:33:26;;;;;;;0.00;0.00;;;;;;;;;;1740548;28;20612;-70
2022/10/19 02:34:18;;;;;;;0.00;0.00;;;;;;;;;;1741903;28;20218;-69
2022/10/19 02:35:10;;;;;;;0.00;0.00;;;;;;;;;;1741086;28;20645;-70
2022/10/19 02:36:02;;;;;;;0.00;0.00;;;;;;;;;;1740561;28;20195;-70
2022/10/19 02:36:53;;;;;;;0.00;0.00;;;;;;;;;;1740691;28;20226;-70
2022/10/19 02:37:45;;;;;;;0.00;0.00;;;;;;;;;;1746691;28;20194;-70
2022/10/19 02:38:36;;;;;;;0.00;0.00;;;;;;;;;;1747130;28;20680;-70
2022/10/19 02:39:28;;;;;;;0.00;0.00;;;;;;;;;;1740771;28;20203;-70
2022/10/19 02:40:19;;;;;;;0.00;0.00;;;;;;;;;;1742279;28;20249;-69
2022/10/19 02:41:14;;;;;;;0.00;0.00;;;;;;;;;;1743202;28;20695;-69
2022/10/19 02:42:08;;;;;;;0.00;0.00;;;;;;;;;;1739954;28;20294;-70
2022/10/19 02:43:02;;;;;;;0.00;0.00;;;;;;;;;;1740788;28;20444;-69
2022/10/19 02:43:57;;;;;;;0.00;0.00;;;;;;;;;;1743690;28;20237;-69
2022/10/19 02:44:51;;;;;;;0.00;0.00;;;;;;;;;;1747499;28;20260;-70
2022/10/19 02:45:44;;;;;;;0.00;0.00;;;;;;;;;;1747377;28;20257;-70
2022/10/19 02:46:38;;;;;;;0.00;0.00;;;;;;;;;;1747512;28;20209;-71
2022/10/19 02:47:33;;;;;;;0.00;0.00;;;;;;;;;;1747335;28;20219;-71
2022/10/19 02:48:25;;;;;;;0.00;0.00;;;;;;;;;;1747407;28;20704;-71
2022/10/19 02:49:18;;;;;;;0.00;0.00;;;;;;;;;;1740236;28;20202;-71
2022/10/19 02:50:10;;;;;;;0.00;0.00;;;;;;;;;;1740843;28;20634;-71
2022/10/19 02:51:02;;;;;;;0.00;0.00;;;;;;;;;;1740487;28;20668;-71
2022/10/19 02:51:57;;;;;;;0.00;0.00;;;;;;;;;;1740556;28;20979;-71
2022/10/19 02:52:49;;;;;;;0.00;0.00;;;;;;;;;;1747551;28;20198;-70
2022/10/19 02:53:40;;;;;;;0.00;0.00;;;;;;;;;;1747301;28;20293;-70
2022/10/19 02:54:32;;;;;;;0.00;0.00;;;;;;;;;;1746907;28;20226;-70
2022/10/19 02:55:24;;;;;;;0.00;0.00;;;;;;;;;;1747679;28;20217;-70
2022/10/19 02:56:16;;;;;;;0.00;0.00;;;;;;;;;;1747067;28;20545;-70
2022/10/19 02:57:13;;;;;;;0.00;0.00;;;;;;;;;;1744192;28;20228;-71
2022/10/19 02:58:05;;;;;;;0.00;0.00;;;;;;;;;;1740561;28;20644;-71
2022/10/19 02:58:57;;;;;;;0.00;0.00;;;;;;;;;;1744471;28;20655;-70
2022/10/19 02:59:49;;;;;;;0.00;0.00;;;;;;;;;;1747156;28;20206;-71
2022/10/19 03:00:40;;;;;;;0.00;0.00;;;;;;;;;;1747316;28;20236;-71
2022/10/19 03:01:32;;;;;;;0.00;0.00;;;;;;;;;;1741157;28;20203;-70
2022/10/19 03:02:23;;;;;;;0.00;0.00;;;;;;;;;;1739837;28;20265;-70
2022/10/19 03:03:16;;;;;;;0.00;0.00;;;;;;;;;;1740537;28;20199;-69
2022/10/19 03:04:07;;;;;;;0.00;0.00;;;;;;;;;;1740274;28;20249;-69
2022/10/19 03:05:00;;;;;;;0.00;0.00;;;;;;;;;;1740266;28;20351;-69
2022/10/19 03:05:51;;;;;;;0.00;0.00;;;;;;;;;;1741003;28;20265;-69
2022/10/19 03:06:43;;;;;;;0.00;0.00;;;;;;;;;;1747273;28;21055;-70
2022/10/19 03:07:34;;;;;;;0.00;0.00;;;;;;;;;;1747163;28;20244;-71
2022/10/19 03:08:26;;;;;;;0.00;0.00;;;;;;;;;;1747573;28;20539;-71
2022/10/19 03:09:17;;;;;;;0.00;0.00;;;;;;;;;;1741541;28;20234;-71
2022/10/19 03:10:09;;;;;;;0.00;0.00;;;;;;;;;;1747857;28;20229;-71
2022/10/19 03:11:01;;;;;;;0.00;0.00;;;;;;;;;;1746848;28;20269;-70
2022/10/19 03:11:53;;;;;;;0.00;0.00;;;;;;;;;;1747186;28;20578;-70
2022/10/19 03:12:44;;;;;;;0.00;0.00;;;;;;;;;;1740748;28;20593;-69
2022/10/19 03:13:36;;;;;;;0.00;0.00;;;;;;;;;;1740522;28;20349;-70
2022/10/19 03:14:27;;;;;;;0.10;0.10;;;;;;;;;;1740214;28;20325;-69
2022/10/19 03:15:22;;;;;;;0.00;0.00;;;;;;;;;;1740535;28;20214;-69
2022/10/19 03:16:13;;;;;;;0.00;0.00;;;;;;;;;;1740240;28;20740;-69
2022/10/19 03:17:05;;;;;;;0.00;0.00;;;;;;;;;;1739903;28;20213;-69
2022/10/19 03:17:56;;;;;;;0.00;0.00;;;;;;;;;;1740561;28;20230;-69
2022/10/19 03:18:50;;;;;;;0.00;0.00;;;;;;;;;;1739964;28;20582;-69
2022/10/19 03:19:41;;;;;;;0.00;0.00;;;;;;;;;;1740464;28;20237;-69
2022/10/19 03:20:33;;;;;;;0.00;0.00;;;;;;;;;;1744059;28;20202;-69
2022/10/19 03:21:24;;;;;;;0.00;0.00;;;;;;;;;;1746882;28;20242;-70
2022/10/19 03:22:16;;;;;;;0.00;0.00;;;;;;;;;;1746764;28;20268;-70
2022/10/19 03:23:07;;;;;;;0.00;0.00;;;;;;;;;;1747151;28;20206;-70
2022/10/19 03:24:00;;;;;;;0.00;0.00;;;;;;;;;;1742743;28;20199;-70
2022/10/19 03:24:51;;;;;;;0.00;0.00;;;;;;;;;;1740322;28;20203;-70
2022/10/19 03:25:43;;;;;;;0.00;0.00;;;;;;;;;;1743790;28;20580;-70
2022/10/19 03:26:34;;;;;;;0.00;0.00;;;;;;;;;;1747213;28;20703;-70
2022/10/19 03:27:26;;;;;;;0.00;0.00;;;;;;;;;;1746703;28;20226;-70
2022/10/19 03:28:17;;;;;;;0.00;0.00;;;;;;;;;;1747491;28;20248;-71
2022/10/19 03:29:09;;;;;;;0.00;0.00;;;;;;;;;;1746869;28;20229;-70
2022/10/19 03:30:00;;;;;;;0.00;0.00;;;;;;;;;;1747370;28;20238;-70
2022/10/19 03:30:54;;;;;;;0.00;0.00;;;;;;;;;;1746963;28;20202;-70
2022/10/19 03:31:45;;;;;;;0.00;0.00;;;;;;;;;;1746962;28;20229;-69
2022/10/19 03:32:37;;;;;;;0.00;0.00;;;;;;;;;;1739664;28;20981;-69
2022/10/19 03:33:28;;;;;;;0.00;0.00;;;;;;;;;;1740134;28;20747;-71
2022/10/19 03:34:21;;;;;;;0.00;0.00;;;;;;;;;;1740271;28;20217;-69
2022/10/19 03:35:12;;;;;;;0.00;0.00;;;;;;;;;;1740440;28;20234;-69
2022/10/19 03:36:14;;;;;;;0.00;0.00;;;;;;;;;;1740202;28;20249;-70
2022/10/19 03:37:07;;;;;;;0.00;0.00;;;;;;;;;;1740183;28;20308;-70
2022/10/19 03:37:58;;;;;;;0.00;0.00;;;;;;;;;;1739896;28;20217;-71
2022/10/19 03:38:51;;;;;;;0.00;0.00;;;;;;;;;;1742829;28;20609;-70
2022/10/19 03:39:42;;;;;;;0.00;0.00;;;;;;;;;;1747023;28;20569;-70
2022/10/19 03:40:34;;;;;;;0.00;0.00;;;;;;;;;;1747255;28;20217;-71
2022/10/19 03:41:26;;;;;;;0.00;0.00;;;;;;;;;;1734308;28;20246;-71
2022/10/19 03:42:18;;;;;;;0.00;0.00;;;;;;;;;;1737460;28;20245;-70
2022/10/19 03:43:09;;;;;;;0.00;0.00;;;;;;;;;;1739966;28;20246;-70
2022/10/19 03:44:01;;;;;;;0.00;0.00;;;;;;;;;;1739918;28;20207;-70
2022/10/19 03:44:52;;;;;;;0.00;0.00;;;;;;;;;;1740483;28;20230;-70
2022/10/19 03:45:46;;;;;;;0.00;0.00;;;;;;;;;;1740287;28;20211;-70
2022/10/19 03:46:38;;;;;;;0.00;0.00;;;;;;;;;;1747331;28;20210;-70
2022/10/19 03:47:30;;;;;;;0.00;0.00;;;;;;;;;;1742766;28;20207;-70
2022/10/19 03:48:21;;;;;;;0.00;0.00;;;;;;;;;;1739763;28;20230;-70
2022/10/19 03:49:13;;;;;;;0.00;0.00;;;;;;;;;;1740041;28;20226;-70
2022/10/19 03:50:06;;;;;;;0.00;0.00;;;;;;;;;;1740557;28;20246;-71
2022/10/19 03:51:01;;;;;;;0.00;0.00;;;;;;;;;;1741754;28;20236;-71
2022/10/19 03:51:52;;;;;;;0.00;0.00;;;;;;;;;;1739713;28;20728;-71
2022/10/19 03:52:44;;;;;;;0.00;0.00;;;;;;;;;;1746282;28;20560;-71
2022/10/19 03:53:35;;;;;;;0.00;0.00;;;;;;;;;;1745771;28;20238;-71
2022/10/19 03:54:27;;;;;;;0.00;0.00;;;;;;;;;;1739805;28;20925;-71
2022/10/19 03:55:18;;;;;;;0.00;0.00;;;;;;;;;;1740500;28;20670;-71
2022/10/19 03:56:12;;;;;;;0.00;0.00;;;;;;;;;;1739902;28;20604;-70
2022/10/19 03:57:03;;;;;;;0.00;0.00;;;;;;;;;;1740080;28;20573;-70
2022/10/19 03:57:55;;;;;;;0.00;0.00;;;;;;;;;;1740315;28;20214;-69
2022/10/19 03:58:47;;;;;;;0.00;0.00;;;;;;;;;;1739927;28;20260;-70
2022/10/19 03:59:39;;;;;;;0.00;0.00;;;;;;;;;;1740046;28;20209;-70
2022/10/19 04:00:30;;;;;;;0.00;0.00;;;;;;;;;;1740071;28;20225;-70
2022/10/19 04:01:23;;;;;;;0.00;0.00;;;;;;;;;;1740233;28;20203;-71
2022/10/19 04:02:14;;;;;;;0.00;0.00;;;;;;;;;;1741967;28;20655;-71
2022/10/19 04:03:06;;;;;;;0.00;0.00;;;;;;;;;;1747120;28;20206;-71
2022/10/19 04:03:58;;;;;;;0.00;0.00;;;;;;;;;;1742712;28;20249;-71
2022/10/19 04:04:50;;;;;;;0.00;0.00;;;;;;;;;;1739678;28;20633;-71
2022/10/19 04:05:42;;;;;;;0.00;0.00;;;;;;;;;;1740252;28;20203;-71
2022/10/19 04:06:35;;;;;;;0.00;0.00;;;;;;;;;;1740002;28;20257;-69
2022/10/19 04:07:26;;;;;;;0.00;0.00;;;;;;;;;;1740001;28;20242;-70
2022/10/19 04:08:19;;;;;;;0.00;0.00;;;;;;;;;;1740263;28;20202;-70
2022/10/19 04:09:11;;;;;;;0.00;0.00;;;;;;;;;;1739701;28;20230;-70
2022/10/19 04:10:04;;;;;;;0.00;0.00;;;;;;;;;;1740141;28;20345;-70
2022/10/19 04:10:58;;;;;;;0.00;0.00;;;;;;;;;;1739594;28;20233;-70
2022/10/19 04:11:50;;;;;;;0.00;0.00;;;;;;;;;;1739875;28;20254;-69
2022/10/19 04:12:41;;;;;;;0.00;0.00;;;;;;;;;;1741758;28;20203;-69
2022/10/19 04:13:34;;;;;;;0.00;0.00;;;;;;;;;;1747043;28;20471;-69
2022/10/19 04:14:25;;;;;;;0.00;0.00;;;;;;;;;;1747101;28;20237;-70
2022/10/19 04:15:17;;;;;;;0.00;0.00;;;;;;;;;;1745857;28;20202;-70
2022/10/19 04:16:09;;;;;;;0.00;0.00;;;;;;;;;;1740144;28;20665;-70
2022/10/19 04:17:01;;;;;;;0.00;0.00;;;;;;;;;;1739929;28;20257;-70
2022/10/19 04:17:52;;;;;;;0.00;0.00;;;;;;;;;;1747114;28;20572;-70
2022/10/19 04:18:43;;;;;;;0.00;0.00;;;;;;;;;;1745029;28;20210;-71
2022/10/19 04:19:35;;;;;;;0.00;0.00;;;;;;;;;;1739997;28;20225;-70
2022/10/19 04:20:26;;;;;;;0.00;0.00;;;;;;;;;;1743117;28;20782;-70
2022/10/19 04:21:22;;;;;;;0.00;0.00;;;;;;;;;;1746587;28;20306;-71
2022/10/19 04:22:13;;;;;;;0.00;0.00;;;;;;;;;;1746521;28;20213;-70
2022/10/19 04:23:05;;;;;;;0.00;0.00;;;;;;;;;;1746908;28;20210;-71
2022/10/19 04:23:58;;;;;;;0.00;0.00;;;;;;;;;;1746837;28;20297;-71
2022/10/19 04:24:50;;;;;;;0.00;0.00;;;;;;;;;;1747122;28;20230;-70
2022/10/19 04:25:41;;;;;;;0.00;0.00;;;;;;;;;;1742718;28;20293;-71
2022/10/19 04:26:33;;;;;;;0.00;0.00;;;;;;;;;;1739816;28;20324;-70
2022/10/19 04:27:24;;;;;;;0.00;0.00;;;;;;;;;;1745049;28;20241;-70
2022/10/19 04:28:16;;;;;;;0.00;0.00;;;;;;;;;;1747137;28;20226;-70
2022/10/19 04:29:08;;;;;;;0.00;0.00;;;;;;;;;;1746802;28;20230;-70
2022/10/19 04:30:00;;;;;;;0.00;0.00;;;;;;;;;;1746862;28;20210;-70
2022/10/19 04:30:51;;;;;;;0.00;0.00;;;;;;;;;;1746862;28;20206;-70
2022/10/19 04:31:43;;;;;;;0.00;0.00;;;;;;;;;;1746488;28;20230;-70
2022/10/19 04:32:34;;;;;;;0.00;0.00;;;;;;;;;;1746686;28;20846;-70
2022/10/19 04:33:26;;;;;;;0.00;0.00;;;;;;;;;;1746909;28;20206;-70
2022/10/19 04:34:17;;;;;;;0.00;0.00;;;;;;;;;;1746613;28;20252;-70
2022/10/19 04:35:10;;;;;;;0.00;0.00;;;;;;;;;;1747155;28;20251;-70
2022/10/19 04:36:01;;;;;;;0.00;0.00;;;;;;;;;;1746654;28;20568;-70
2022/10/19 04:36:58;;;;;;;0.00;0.00;;;;;;;;;;1746589;28;20198;-70
2022/10/19 04:37:49;;;;;;;0.00;0.00;;;;;;;;;;1743712;28;20199;-70
2022/10/19 04:38:41;;;;;;;0.00;0.00;;;;;;;;;;1741827;28;20520;-69
2022/10/19 04:39:32;;;;;;;0.00;0.00;;;;;;;;;;1746955;28;20245;-69
2022/10/19 04:40:24;;;;;;;0.00;0.00;;;;;;;;;;1747011;28;20186;-69
2022/10/19 04:41:16;;;;;;;0.00;0.00;;;;;;;;;;1736895;28;20272;-70
2022/10/19 04:42:08;;;;;;;0.00;0.00;;;;;;;;;;1735292;28;20198;-70
2022/10/19 04:42:59;;;;;;;0.00;0.00;;;;;;;;;;1740085;28;20265;-70
2022/10/19 04:43:55;;;;;;;0.00;0.00;;;;;;;;;;1739823;28;20195;-70
2022/10/19 04:44:46;;;;;;;0.00;0.00;;;;;;;;;;1739973;28;20234;-70
2022/10/19 04:45:38;;;;;;;0.00;0.00;;;;;;;;;;1740203;28;20645;-70
2022/10/19 04:46:30;;;;;;;0.00;0.00;;;;;;;;;;1739852;28;20679;-70
2022/10/19 04:47:22;;;;;;;0.00;0.00;;;;;;;;;;1739694;28;20245;-70
2022/10/19 04:48:13;;;;;;;0.00;0.00;;;;;;;;;;1739726;28;20309;-70
2022/10/19 04:49:05;;;;;;;0.00;0.00;;;;;;;;;;1739915;28;20194;-70
2022/10/19 04:49:56;;;;;;;0.00;0.00;;;;;;;;;;1740328;28;20195;-70
2022/10/19 04:50:48;;;;;;;0.00;0.00;;;;;;;;;;1739741;28;20606;-71
2022/10/19 04:51:39;;;;;;;0.00;0.00;;;;;;;;;;1740062;28;20674;-71
2022/10/19 04:52:34;;;;;;;0.00;0.00;;;;;;;;;;1744904;28;20661;-71
2022/10/19 04:53:25;;;;;;;0.00;0.00;;;;;;;;;;1746751;28;20676;-71
2022/10/19 04:54:17;;;;;;;0.00;0.00;;;;;;;;;;1746739;28;20577;-70
2022/10/19 04:55:08;;;;;;;0.00;0.00;;;;;;;;;;1747084;28;20256;-71
2022/10/19 04:56:00;;;;;;;0.00;0.00;;;;;;;;;;1746717;28;20222;-70
2022/10/19 04:56:52;;;;;;;0.00;0.00;;;;;;;;;;1739287;28;20617;-70
2022/10/19 04:57:44;;;;;;;0.00;0.00;;;;;;;;;;1739597;28;20199;-69
2022/10/19 04:58:35;;;;;;;0.00;0.00;;;;;;;;;;1742106;28;20242;-70
2022/10/19 04:59:28;;;;;;;0.00;0.00;;;;;;;;;;1740075;28;20234;-69
2022/10/19 05:00:19;;;;;;;0.00;0.00;;;;;;;;;;1740217;28;20219;-69
2022/10/19 05:01:12;;;;;;;0.00;0.00;;;;;;;;;;1739762;28;20217;-69
2022/10/19 05:02:03;;;;;;;0.00;0.00;;;;;;;;;;1739503;28;20725;-70
2022/10/19 05:02:55;;;;;;;0.00;0.00;;;;;;;;;;1739864;28;20647;-69
2022/10/19 05:03:47;;;;;;;0.00;0.00;;;;;;;;;;1739539;28;20238;-69
2022/10/19 05:04:39;;;;;;;0.00;0.00;;;;;;;;;;1740146;28;20253;-69
2022/10/19 05:05:31;;;;;;;0.00;0.00;;;;;;;;;;1739946;28;21606;-70
2022/10/19 05:06:23;;;;;;;0.00;0.00;;;;;;;;;;1741093;28;20234;-71
2022/10/19 05:07:14;;;;;;;0.00;0.00;;;;;;;;;;1744613;28;20706;-69
2022/10/19 05:08:07;;;;;;;0.00;0.00;;;;;;;;;;1748273;28;20260;-69
2022/10/19 05:08:59;;;;;;;0.00;0.00;;;;;;;;;;1746166;28;20665;-69
2022/10/19 05:09:51;;;;;;;0.00;0.00;;;;;;;;;;1741908;28;20205;-69
2022/10/19 05:10:42;;;;;;;0.00;0.00;;;;;;;;;;1745801;28;20476;-69
2022/10/19 05:11:34;;;;;;;0.00;0.00;;;;;;;;;;1748203;28;20205;-69
2022/10/19 05:12:25;;;;;;;0.00;0.00;;;;;;;;;;1741877;28;20266;-69
2022/10/19 05:13:17;;;;;;;0.00;0.00;;;;;;;;;;1748414;28;20600;-69
2022/10/19 05:14:08;;;;;;;0.00;0.00;;;;;;;;;;1742001;28;20237;-69
2022/10/19 05:15:03;;;;;;;0.00;0.00;;;;;;;;;;1740759;28;20199;-69
2022/10/19 05:15:55;;;;;;;0.00;0.00;;;;;;;;;;1742160;28;20246;-69
2022/10/19 05:16:47;;;;;;;0.00;0.00;;;;;;;;;;1748189;28;20205;-70